sensor_id;sensor_type;location;lat;lon;timestamp;P1;durP1;ratioP1;P2;durP2;ratioP2
20318;SDS011;10317;47.254;11.314;2022-11-09T00:00:38;8.05;;;5.22;;
20318;SDS011;10317;47.254;11.314;2022-11-09T00:03:04;7.43;;;5.60;;
20318;SDS011;10317;47.254;11.314;2022-11-09T00:05:30;9.10;;;6.05;;
20318;SDS011;10317;47.254;11.314;2022-11-09T00:07:56;9.95;;;5.90;;
20318;SDS011;10317;47.254;11.314;2022-11-09T00:10:21;8.90;;;5.47;;
20318;SDS011;10317;47.254;11.314;2022-11-09T00:12:47;9.80;;;5.60;;
20318;SDS011;10317;47.254;11.314;2022-11-09T00:15:13;7.50;;;5.95;;
20318;SDS011;10317;47.254;11.314;2022-11-09T00:17:38;5.97;;;4.70;;
20318;SDS011;10317;47.254;11.314;2022-11-09T00:20:04;5.82;;;4.95;;
20318;SDS011;10317;47.254;11.314;2022-11-09T00:22:30;6.85;;;4.80;;
20318;SDS011;10317;47.254;11.314;2022-11-09T00:24:55;7.30;;;5.50;;
20318;SDS011;10317;47.254;11.314;2022-11-09T00:27:21;6.18;;;4.68;;
20318;SDS011;10317;47.254;11.314;2022-11-09T00:29:47;6.90;;;5.45;;
20318;SDS011;10317;47.254;11.314;2022-11-09T00:32:12;7.57;;;5.78;;
20318;SDS011;10317;47.254;11.314;2022-11-09T00:34:38;7.70;;;5.97;;
20318;SDS011;10317;47.254;11.314;2022-11-09T00:37:03;6.28;;;5.38;;
20318;SDS011;10317;47.254;11.314;2022-11-09T00:39:29;5.65;;;5.05;;
20318;SDS011;10317;47.254;11.314;2022-11-09T00:41:55;6.63;;;5.40;;
20318;SDS011;10317;47.254;11.314;2022-11-09T00:44:20;7.72;;;5.03;;
20318;SDS011;10317;47.254;11.314;2022-11-09T00:46:46;8.00;;;5.38;;
20318;SDS011;10317;47.254;11.314;2022-11-09T00:49:12;7.30;;;5.18;;
20318;SDS011;10317;47.254;11.314;2022-11-09T00:51:37;5.75;;;5.03;;
20318;SDS011;10317;47.254;11.314;2022-11-09T00:54:03;6.45;;;5.40;;
20318;SDS011;10317;47.254;11.314;2022-11-09T00:56:29;9.90;;;6.55;;
20318;SDS011;10317;47.254;11.314;2022-11-09T00:58:54;8.25;;;5.45;;
20318;SDS011;10317;47.254;11.314;2022-11-09T01:01:20;7.75;;;4.57;;
20318;SDS011;10317;47.254;11.314;2022-11-09T01:03:46;9.10;;;5.10;;
20318;SDS011;10317;47.254;11.314;2022-11-09T01:06:18;8.48;;;4.90;;
20318;SDS011;10317;47.254;11.314;2022-11-09T01:08:46;8.43;;;6.18;;
20318;SDS011;10317;47.254;11.314;2022-11-09T01:11:12;7.47;;;5.68;;
20318;SDS011;10317;47.254;11.314;2022-11-09T01:13:39;6.13;;;5.13;;
20318;SDS011;10317;47.254;11.314;2022-11-09T01:16:12;7.00;;;4.78;;
20318;SDS011;10317;47.254;11.314;2022-11-09T01:18:43;6.05;;;4.55;;
20318;SDS011;10317;47.254;11.314;2022-11-09T01:21:09;6.30;;;5.32;;
20318;SDS011;10317;47.254;11.314;2022-11-09T01:23:36;8.43;;;5.20;;
20318;SDS011;10317;47.254;11.314;2022-11-09T01:26:03;8.70;;;6.18;;
20318;SDS011;10317;47.254;11.314;2022-11-09T01:28:31;11.13;;;7.35;;
20318;SDS011;10317;47.254;11.314;2022-11-09T01:31:04;14.02;;;8.85;;
20318;SDS011;10317;47.254;11.314;2022-11-09T01:33:35;6.05;;;4.88;;
20318;SDS011;10317;47.254;11.314;2022-11-09T01:36:05;5.35;;;4.50;;
20318;SDS011;10317;47.254;11.314;2022-11-09T01:38:32;7.60;;;4.95;;
20318;SDS011;10317;47.254;11.314;2022-11-09T01:40:59;7.72;;;5.28;;
20318;SDS011;10317;47.254;11.314;2022-11-09T01:43:25;7.03;;;6.13;;
20318;SDS011;10317;47.254;11.314;2022-11-09T01:45:52;7.30;;;5.68;;
20318;SDS011;10317;47.254;11.314;2022-11-09T01:51:09;10.35;;;6.53;;
20318;SDS011;10317;47.254;11.314;2022-11-09T01:53:41;8.73;;;6.80;;
20318;SDS011;10317;47.254;11.314;2022-11-09T01:56:10;7.32;;;6.47;;
20318;SDS011;10317;47.254;11.314;2022-11-09T01:58:42;8.40;;;5.93;;
20318;SDS011;10317;47.254;11.314;2022-11-09T02:01:09;12.13;;;7.00;;
20318;SDS011;10317;47.254;11.314;2022-11-09T02:03:38;8.70;;;7.10;;
20318;SDS011;10317;47.254;11.314;2022-11-09T02:06:08;11.73;;;6.55;;
20318;SDS011;10317;47.254;11.314;2022-11-09T02:08:38;7.95;;;6.25;;
20318;SDS011;10317;47.254;11.314;2022-11-09T02:11:10;8.98;;;6.20;;
20318;SDS011;10317;47.254;11.314;2022-11-09T02:13:37;8.32;;;6.28;;
20318;SDS011;10317;47.254;11.314;2022-11-09T02:16:07;7.18;;;5.95;;
20318;SDS011;10317;47.254;11.314;2022-11-09T02:18:37;7.95;;;5.97;;
20318;SDS011;10317;47.254;11.314;2022-11-09T02:21:08;6.68;;;5.70;;
20318;SDS011;10317;47.254;11.314;2022-11-09T02:23:34;9.25;;;6.32;;
20318;SDS011;10317;47.254;11.314;2022-11-09T02:26:04;8.70;;;6.13;;
20318;SDS011;10317;47.254;11.314;2022-11-09T02:28:33;11.50;;;6.43;;
20318;SDS011;10317;47.254;11.314;2022-11-09T02:31:01;9.73;;;6.35;;
20318;SDS011;10317;47.254;11.314;2022-11-09T02:33:28;10.02;;;6.43;;
20318;SDS011;10317;47.254;11.314;2022-11-09T02:35:54;7.63;;;5.60;;
20318;SDS011;10317;47.254;11.314;2022-11-09T02:38:20;11.13;;;6.13;;
20318;SDS011;10317;47.254;11.314;2022-11-09T02:40:47;7.47;;;5.45;;
20318;SDS011;10317;47.254;11.314;2022-11-09T02:43:15;7.45;;;5.82;;
20318;SDS011;10317;47.254;11.314;2022-11-09T02:45:42;6.95;;;6.00;;
20318;SDS011;10317;47.254;11.314;2022-11-09T02:48:07;9.75;;;6.07;;
20318;SDS011;10317;47.254;11.314;2022-11-09T02:50:33;6.30;;;5.70;;
20318;SDS011;10317;47.254;11.314;2022-11-09T02:53:01;11.60;;;6.28;;
20318;SDS011;10317;47.254;11.314;2022-11-09T02:55:26;7.47;;;5.50;;
20318;SDS011;10317;47.254;11.314;2022-11-09T02:57:52;7.80;;;5.43;;
20318;SDS011;10317;47.254;11.314;2022-11-09T03:00:18;9.35;;;6.18;;
20318;SDS011;10317;47.254;11.314;2022-11-09T03:02:43;10.32;;;5.80;;
20318;SDS011;10317;47.254;11.314;2022-11-09T03:05:09;9.73;;;6.47;;
20318;SDS011;10317;47.254;11.314;2022-11-09T03:07:35;8.70;;;6.32;;
20318;SDS011;10317;47.254;11.314;2022-11-09T03:10:00;7.72;;;5.60;;
20318;SDS011;10317;47.254;11.314;2022-11-09T03:12:26;8.35;;;5.78;;
20318;SDS011;10317;47.254;11.314;2022-11-09T03:14:55;8.13;;;5.30;;
20318;SDS011;10317;47.254;11.314;2022-11-09T03:17:22;7.82;;;5.07;;
20318;SDS011;10317;47.254;11.314;2022-11-09T03:19:47;7.13;;;5.05;;
20318;SDS011;10317;47.254;11.314;2022-11-09T03:22:13;6.57;;;5.32;;
20318;SDS011;10317;47.254;11.314;2022-11-09T03:24:39;5.78;;;5.10;;
20318;SDS011;10317;47.254;11.314;2022-11-09T03:27:04;11.40;;;5.82;;
20318;SDS011;10317;47.254;11.314;2022-11-09T03:29:30;9.68;;;4.93;;
20318;SDS011;10317;47.254;11.314;2022-11-09T03:31:56;6.65;;;4.97;;
20318;SDS011;10317;47.254;11.314;2022-11-09T03:34:22;6.40;;;4.80;;
20318;SDS011;10317;47.254;11.314;2022-11-09T03:36:47;8.25;;;5.18;;
20318;SDS011;10317;47.254;11.314;2022-11-09T03:39:13;5.85;;;4.85;;
20318;SDS011;10317;47.254;11.314;2022-11-09T03:41:38;6.57;;;4.43;;
20318;SDS011;10317;47.254;11.314;2022-11-09T03:44:04;5.95;;;4.50;;
20318;SDS011;10317;47.254;11.314;2022-11-09T03:46:30;6.78;;;4.80;;
20318;SDS011;10317;47.254;11.314;2022-11-09T03:48:56;5.25;;;4.75;;
20318;SDS011;10317;47.254;11.314;2022-11-09T03:51:21;6.35;;;4.68;;
20318;SDS011;10317;47.254;11.314;2022-11-09T03:53:47;5.85;;;5.20;;
20318;SDS011;10317;47.254;11.314;2022-11-09T03:56:12;7.90;;;4.85;;
20318;SDS011;10317;47.254;11.314;2022-11-09T03:58:38;10.02;;;5.55;;
20318;SDS011;10317;47.254;11.314;2022-11-09T04:01:04;5.18;;;4.75;;
20318;SDS011;10317;47.254;11.314;2022-11-09T04:03:29;5.45;;;4.82;;
20318;SDS011;10317;47.254;11.314;2022-11-09T04:05:57;5.50;;;4.22;;
20318;SDS011;10317;47.254;11.314;2022-11-09T04:08:23;5.93;;;4.57;;
20318;SDS011;10317;47.254;11.314;2022-11-09T04:10:49;9.15;;;4.78;;
20318;SDS011;10317;47.254;11.314;2022-11-09T04:13:14;5.95;;;3.95;;
20318;SDS011;10317;47.254;11.314;2022-11-09T04:15:41;5.10;;;4.25;;
20318;SDS011;10317;47.254;11.314;2022-11-09T04:18:07;4.85;;;4.22;;
20318;SDS011;10317;47.254;11.314;2022-11-09T04:20:37;7.63;;;5.00;;
20318;SDS011;10317;47.254;11.314;2022-11-09T04:23:04;8.90;;;5.82;;
20318;SDS011;10317;47.254;11.314;2022-11-09T04:25:31;6.18;;;4.63;;
20318;SDS011;10317;47.254;11.314;2022-11-09T04:27:58;6.13;;;4.88;;
20318;SDS011;10317;47.254;11.314;2022-11-09T04:30:26;7.80;;;5.22;;
20318;SDS011;10317;47.254;11.314;2022-11-09T04:32:53;6.80;;;4.45;;
20318;SDS011;10317;47.254;11.314;2022-11-09T04:35:20;7.88;;;4.90;;
20318;SDS011;10317;47.254;11.314;2022-11-09T04:37:59;7.07;;;5.15;;
20318;SDS011;10317;47.254;11.314;2022-11-09T04:40:27;6.78;;;4.85;;
20318;SDS011;10317;47.254;11.314;2022-11-09T04:42:53;4.90;;;4.13;;
20318;SDS011;10317;47.254;11.314;2022-11-09T04:45:20;7.15;;;5.00;;
20318;SDS011;10317;47.254;11.314;2022-11-09T04:47:46;6.95;;;5.57;;
20318;SDS011;10317;47.254;11.314;2022-11-09T04:50:12;6.57;;;5.47;;
20318;SDS011;10317;47.254;11.314;2022-11-09T04:52:38;5.38;;;4.65;;
20318;SDS011;10317;47.254;11.314;2022-11-09T04:55:04;8.43;;;5.10;;
20318;SDS011;10317;47.254;11.314;2022-11-09T04:57:30;7.53;;;5.30;;
20318;SDS011;10317;47.254;11.314;2022-11-09T04:59:56;5.95;;;5.32;;
20318;SDS011;10317;47.254;11.314;2022-11-09T05:02:22;7.80;;;5.05;;
20318;SDS011;10317;47.254;11.314;2022-11-09T05:04:47;7.93;;;5.45;;
20318;SDS011;10317;47.254;11.314;2022-11-09T05:07:13;6.43;;;4.18;;
20318;SDS011;10317;47.254;11.314;2022-11-09T05:09:39;8.27;;;4.80;;
20318;SDS011;10317;47.254;11.314;2022-11-09T05:12:04;6.28;;;4.45;;
20318;SDS011;10317;47.254;11.314;2022-11-09T05:14:30;5.22;;;4.22;;
20318;SDS011;10317;47.254;11.314;2022-11-09T05:16:56;6.00;;;5.00;;
20318;SDS011;10317;47.254;11.314;2022-11-09T05:19:21;6.88;;;4.57;;
20318;SDS011;10317;47.254;11.314;2022-11-09T05:21:47;7.18;;;4.18;;
20318;SDS011;10317;47.254;11.314;2022-11-09T05:24:13;7.38;;;4.65;;
20318;SDS011;10317;47.254;11.314;2022-11-09T05:26:39;6.13;;;4.00;;
20318;SDS011;10317;47.254;11.314;2022-11-09T05:29:07;4.70;;;4.20;;
20318;SDS011;10317;47.254;11.314;2022-11-09T05:31:34;5.13;;;3.70;;
20318;SDS011;10317;47.254;11.314;2022-11-09T05:34:01;5.45;;;4.57;;
20318;SDS011;10317;47.254;11.314;2022-11-09T05:36:28;6.63;;;4.45;;
20318;SDS011;10317;47.254;11.314;2022-11-09T05:38:54;5.68;;;4.35;;
20318;SDS011;10317;47.254;11.314;2022-11-09T05:41:21;9.02;;;4.60;;
20318;SDS011;10317;47.254;11.314;2022-11-09T05:43:48;4.10;;;3.70;;
20318;SDS011;10317;47.254;11.314;2022-11-09T05:46:15;4.18;;;3.75;;
20318;SDS011;10317;47.254;11.314;2022-11-09T05:48:42;4.28;;;3.85;;
20318;SDS011;10317;47.254;11.314;2022-11-09T05:51:08;5.32;;;4.50;;
20318;SDS011;10317;47.254;11.314;2022-11-09T05:53:36;5.07;;;4.15;;
20318;SDS011;10317;47.254;11.314;2022-11-09T05:56:11;5.03;;;4.53;;
20318;SDS011;10317;47.254;11.314;2022-11-09T05:58:37;5.07;;;3.92;;
20318;SDS011;10317;47.254;11.314;2022-11-09T06:01:04;4.38;;;3.85;;
20318;SDS011;10317;47.254;11.314;2022-11-09T06:03:31;6.93;;;4.22;;
20318;SDS011;10317;47.254;11.314;2022-11-09T06:06:01;5.10;;;4.32;;
20318;SDS011;10317;47.254;11.314;2022-11-09T06:08:28;4.75;;;3.90;;
20318;SDS011;10317;47.254;11.314;2022-11-09T06:11:02;7.20;;;4.63;;
20318;SDS011;10317;47.254;11.314;2022-11-09T06:13:29;5.05;;;4.55;;
20318;SDS011;10317;47.254;11.314;2022-11-09T06:15:55;7.43;;;4.07;;
20318;SDS011;10317;47.254;11.314;2022-11-09T06:18:22;5.05;;;4.38;;
20318;SDS011;10317;47.254;11.314;2022-11-09T06:20:50;5.25;;;4.38;;
20318;SDS011;10317;47.254;11.314;2022-11-09T06:23:20;4.90;;;4.40;;
20318;SDS011;10317;47.254;11.314;2022-11-09T06:25:50;7.57;;;4.57;;
20318;SDS011;10317;47.254;11.314;2022-11-09T06:28:17;4.57;;;4.10;;
20318;SDS011;10317;47.254;11.314;2022-11-09T06:30:42;4.95;;;3.92;;
20318;SDS011;10317;47.254;11.314;2022-11-09T06:33:08;4.72;;;4.18;;
20318;SDS011;10317;47.254;11.314;2022-11-09T06:35:34;5.35;;;4.05;;
20318;SDS011;10317;47.254;11.314;2022-11-09T06:37:59;7.70;;;4.30;;
20318;SDS011;10317;47.254;11.314;2022-11-09T06:40:25;7.57;;;4.28;;
20318;SDS011;10317;47.254;11.314;2022-11-09T06:42:52;5.85;;;4.35;;
20318;SDS011;10317;47.254;11.314;2022-11-09T06:45:21;7.88;;;5.32;;
20318;SDS011;10317;47.254;11.314;2022-11-09T06:47:46;7.13;;;4.78;;
20318;SDS011;10317;47.254;11.314;2022-11-09T06:50:12;5.22;;;4.30;;
20318;SDS011;10317;47.254;11.314;2022-11-09T06:52:37;8.85;;;4.78;;
20318;SDS011;10317;47.254;11.314;2022-11-09T06:55:03;9.30;;;4.30;;
20318;SDS011;10317;47.254;11.314;2022-11-09T06:57:29;6.25;;;4.43;;
20318;SDS011;10317;47.254;11.314;2022-11-09T06:59:55;4.45;;;3.78;;
20318;SDS011;10317;47.254;11.314;2022-11-09T07:02:21;4.53;;;3.75;;
20318;SDS011;10317;47.254;11.314;2022-11-09T07:04:50;7.63;;;4.13;;
20318;SDS011;10317;47.254;11.314;2022-11-09T07:07:16;8.82;;;4.18;;
20318;SDS011;10317;47.254;11.314;2022-11-09T07:09:41;8.55;;;3.95;;
20318;SDS011;10317;47.254;11.314;2022-11-09T07:12:07;5.03;;;3.83;;
20318;SDS011;10317;47.254;11.314;2022-11-09T07:14:33;7.45;;;4.95;;
20318;SDS011;10317;47.254;11.314;2022-11-09T07:17:00;8.98;;;5.07;;
20318;SDS011;10317;47.254;11.314;2022-11-09T07:19:27;5.68;;;4.63;;
20318;SDS011;10317;47.254;11.314;2022-11-09T07:21:53;7.35;;;4.88;;
20318;SDS011;10317;47.254;11.314;2022-11-09T07:24:20;8.43;;;4.95;;
20318;SDS011;10317;47.254;11.314;2022-11-09T07:26:46;5.82;;;4.85;;
20318;SDS011;10317;47.254;11.314;2022-11-09T07:29:13;7.28;;;5.00;;
20318;SDS011;10317;47.254;11.314;2022-11-09T07:31:39;8.95;;;5.30;;
20318;SDS011;10317;47.254;11.314;2022-11-09T07:34:04;6.93;;;4.88;;
20318;SDS011;10317;47.254;11.314;2022-11-09T07:36:30;9.00;;;3.95;;
20318;SDS011;10317;47.254;11.314;2022-11-09T07:38:56;7.97;;;5.53;;
20318;SDS011;10317;47.254;11.314;2022-11-09T07:41:22;9.18;;;7.90;;
20318;SDS011;10317;47.254;11.314;2022-11-09T07:43:48;10.00;;;8.00;;
20318;SDS011;10317;47.254;11.314;2022-11-09T07:46:15;9.77;;;7.80;;
20318;SDS011;10317;47.254;11.314;2022-11-09T07:48:40;11.27;;;8.82;;
20318;SDS011;10317;47.254;11.314;2022-11-09T07:51:06;12.98;;;9.10;;
20318;SDS011;10317;47.254;11.314;2022-11-09T07:53:32;11.85;;;8.35;;
20318;SDS011;10317;47.254;11.314;2022-11-09T07:55:59;12.10;;;8.18;;
20318;SDS011;10317;47.254;11.314;2022-11-09T07:58:26;10.35;;;7.40;;
20318;SDS011;10317;47.254;11.314;2022-11-09T08:00:52;8.50;;;7.03;;
20318;SDS011;10317;47.254;11.314;2022-11-09T08:03:19;7.05;;;6.20;;
20318;SDS011;10317;47.254;11.314;2022-11-09T08:05:48;6.80;;;6.20;;
20318;SDS011;10317;47.254;11.314;2022-11-09T08:08:15;8.40;;;6.07;;
20318;SDS011;10317;47.254;11.314;2022-11-09T08:10:41;12.82;;;6.88;;
20318;SDS011;10317;47.254;11.314;2022-11-09T08:13:09;12.70;;;6.18;;
20318;SDS011;10317;47.254;11.314;2022-11-09T08:15:37;7.25;;;5.05;;
20318;SDS011;10317;47.254;11.314;2022-11-09T08:18:04;6.80;;;6.03;;
20318;SDS011;10317;47.254;11.314;2022-11-09T08:20:32;8.48;;;5.38;;
20318;SDS011;10317;47.254;11.314;2022-11-09T08:22:58;7.35;;;5.63;;
20318;SDS011;10317;47.254;11.314;2022-11-09T08:25:24;7.57;;;5.32;;
20318;SDS011;10317;47.254;11.314;2022-11-09T08:27:50;8.93;;;5.68;;
20318;SDS011;10317;47.254;11.314;2022-11-09T08:30:17;8.02;;;4.50;;
20318;SDS011;10317;47.254;11.314;2022-11-09T08:32:44;4.70;;;4.20;;
20318;SDS011;10317;47.254;11.314;2022-11-09T08:35:11;5.85;;;4.30;;
20318;SDS011;10317;47.254;11.314;2022-11-09T08:37:41;5.18;;;4.03;;
20318;SDS011;10317;47.254;11.314;2022-11-09T08:40:11;5.88;;;3.83;;
20318;SDS011;10317;47.254;11.314;2022-11-09T08:42:40;4.50;;;3.42;;
20318;SDS011;10317;47.254;11.314;2022-11-09T08:45:06;5.53;;;2.97;;
20318;SDS011;10317;47.254;11.314;2022-11-09T08:47:32;3.85;;;3.28;;
20318;SDS011;10317;47.254;11.314;2022-11-09T08:49:58;3.47;;;2.92;;
20318;SDS011;10317;47.254;11.314;2022-11-09T08:52:24;4.13;;;2.83;;
20318;SDS011;10317;47.254;11.314;2022-11-09T08:54:51;4.72;;;2.92;;
20318;SDS011;10317;47.254;11.314;2022-11-09T08:57:18;3.25;;;2.97;;
20318;SDS011;10317;47.254;11.314;2022-11-09T08:59:44;3.63;;;2.65;;
20318;SDS011;10317;47.254;11.314;2022-11-09T09:02:10;3.10;;;2.70;;
20318;SDS011;10317;47.254;11.314;2022-11-09T09:04:37;3.25;;;2.30;;
20318;SDS011;10317;47.254;11.314;2022-11-09T09:07:05;3.17;;;2.60;;
20318;SDS011;10317;47.254;11.314;2022-11-09T09:09:31;3.85;;;3.42;;
20318;SDS011;10317;47.254;11.314;2022-11-09T09:12:02;2.20;;;2.10;;
20318;SDS011;10317;47.254;11.314;2022-11-09T09:14:29;2.28;;;2.10;;
20318;SDS011;10317;47.254;11.314;2022-11-09T09:17:00;3.45;;;2.88;;
20318;SDS011;10317;47.254;11.314;2022-11-09T09:19:28;3.55;;;2.88;;
20318;SDS011;10317;47.254;11.314;2022-11-09T09:21:54;4.28;;;2.75;;
20318;SDS011;10317;47.254;11.314;2022-11-09T09:24:20;3.13;;;2.60;;
20318;SDS011;10317;47.254;11.314;2022-11-09T09:26:46;3.38;;;2.30;;
20318;SDS011;10317;47.254;11.314;2022-11-09T09:29:11;4.07;;;2.67;;
20318;SDS011;10317;47.254;11.314;2022-11-09T09:31:38;6.57;;;2.97;;
20318;SDS011;10317;47.254;11.314;2022-11-09T09:34:04;2.65;;;2.47;;
20318;SDS011;10317;47.254;11.314;2022-11-09T09:36:30;3.72;;;2.33;;
20318;SDS011;10317;47.254;11.314;2022-11-09T09:38:56;4.47;;;2.22;;
20318;SDS011;10317;47.254;11.314;2022-11-09T09:44:22;3.45;;;2.70;;
20318;SDS011;10317;47.254;11.314;2022-11-09T09:47:05;3.97;;;2.72;;
20318;SDS011;10317;47.254;11.314;2022-11-09T09:49:45;4.28;;;3.03;;
20318;SDS011;10317;47.254;11.314;2022-11-09T09:52:22;2.70;;;2.13;;
20318;SDS011;10317;47.254;11.314;2022-11-09T09:57:47;3.40;;;2.28;;
20318;SDS011;10317;47.254;11.314;2022-11-09T10:00:19;2.50;;;2.30;;
20318;SDS011;10317;47.254;11.314;2022-11-09T10:02:48;4.18;;;2.33;;
20318;SDS011;10317;47.254;11.314;2022-11-09T10:05:16;2.70;;;2.50;;
20318;SDS011;10317;47.254;11.314;2022-11-09T10:07:53;2.22;;;2.13;;
20318;SDS011;10317;47.254;11.314;2022-11-09T10:10:35;4.05;;;2.42;;
20318;SDS011;10317;47.254;11.314;2022-11-09T10:15:55;22.15;;;3.47;;
20318;SDS011;10317;47.254;11.314;2022-11-09T10:21:13;2.17;;;2.05;;
20318;SDS011;10317;47.254;11.314;2022-11-09T10:24:02;2.72;;;2.45;;
20318;SDS011;10317;47.254;11.314;2022-11-09T10:26:58;2.22;;;2.03;;
20318;SDS011;10317;47.254;11.314;2022-11-09T10:32:12;1.88;;;1.77;;
20318;SDS011;10317;47.254;11.314;2022-11-09T10:37:44;2.10;;;2.00;;
20318;SDS011;10317;47.254;11.314;2022-11-09T10:42:46;1.70;;;1.60;;
20318;SDS011;10317;47.254;11.314;2022-11-09T10:48:12;2.63;;;1.70;;
20318;SDS011;10317;47.254;11.314;2022-11-09T10:53:26;2.58;;;1.88;;
20318;SDS011;10317;47.254;11.314;2022-11-09T10:56:12;1.73;;;1.63;;
20318;SDS011;10317;47.254;11.314;2022-11-09T10:58:47;1.90;;;1.80;;
20318;SDS011;10317;47.254;11.314;2022-11-09T11:01:19;1.80;;;1.70;;
20318;SDS011;10317;47.254;11.314;2022-11-09T11:03:52;1.55;;;1.50;;
20318;SDS011;10317;47.254;11.314;2022-11-09T11:08:54;1.48;;;1.38;;
20318;SDS011;10317;47.254;11.314;2022-11-09T11:11:39;1.88;;;1.77;;
20318;SDS011;10317;47.254;11.314;2022-11-09T11:16:33;2.78;;;2.03;;
20318;SDS011;10317;47.254;11.314;2022-11-09T11:19:01;1.67;;;1.58;;
20318;SDS011;10317;47.254;11.314;2022-11-09T11:21:27;1.95;;;1.85;;
20318;SDS011;10317;47.254;11.314;2022-11-09T11:26:41;2.58;;;1.60;;
20318;SDS011;10317;47.254;11.314;2022-11-09T11:29:43;1.90;;;1.80;;
20318;SDS011;10317;47.254;11.314;2022-11-09T11:32:15;2.30;;;2.15;;
20318;SDS011;10317;47.254;11.314;2022-11-09T11:34:42;1.70;;;1.60;;
20318;SDS011;10317;47.254;11.314;2022-11-09T11:37:27;1.70;;;1.60;;
20318;SDS011;10317;47.254;11.314;2022-11-09T11:40:09;1.70;;;1.60;;
20318;SDS011;10317;47.254;11.314;2022-11-09T11:42:58;1.45;;;1.38;;
20318;SDS011;10317;47.254;11.314;2022-11-09T11:45:51;2.42;;;1.73;;
20318;SDS011;10317;47.254;11.314;2022-11-09T11:56:41;2.40;;;1.50;;
20318;SDS011;10317;47.254;11.314;2022-11-09T11:59:32;1.50;;;1.40;;
20318;SDS011;10317;47.254;11.314;2022-11-09T12:07:29;1.73;;;1.30;;
20318;SDS011;10317;47.254;11.314;2022-11-09T12:40:56;1.42;;;1.33;;
20318;SDS011;10317;47.254;11.314;2022-11-09T12:46:21;2.53;;;1.65;;
20318;SDS011;10317;47.254;11.314;2022-11-09T12:48:53;2.45;;;1.52;;
20318;SDS011;10317;47.254;11.314;2022-11-09T12:51:23;1.50;;;1.40;;
20318;SDS011;10317;47.254;11.314;2022-11-09T12:53:49;1.77;;;1.67;;
20318;SDS011;10317;47.254;11.314;2022-11-09T12:58:48;1.92;;;1.83;;
20318;SDS011;10317;47.254;11.314;2022-11-09T13:01:57;2.75;;;1.40;;
20318;SDS011;10317;47.254;11.314;2022-11-09T13:04:03;1.60;;;1.55;;
20318;SDS011;10317;47.254;11.314;2022-11-09T13:06:31;4.78;;;1.80;;
20318;SDS011;10317;47.254;11.314;2022-11-09T13:11:39;1.95;;;1.70;;
20318;SDS011;10317;47.254;11.314;2022-11-09T13:16:58;1.92;;;1.83;;
20318;SDS011;10317;47.254;11.314;2022-11-09T13:22:02;2.00;;;1.75;;
20318;SDS011;10317;47.254;11.314;2022-11-09T13:24:55;1.98;;;1.70;;
20318;SDS011;10317;47.254;11.314;2022-11-09T13:36:12;1.38;;;1.33;;
20318;SDS011;10317;47.254;11.314;2022-11-09T13:38:30;1.67;;;1.58;;
20318;SDS011;10317;47.254;11.314;2022-11-09T13:40:57;1.38;;;1.35;;
20318;SDS011;10317;47.254;11.314;2022-11-09T13:43:30;1.60;;;1.60;;
20318;SDS011;10317;47.254;11.314;2022-11-09T13:51:17;2.95;;;1.55;;
20318;SDS011;10317;47.254;11.314;2022-11-09T13:54:46;2.38;;;1.40;;
20318;SDS011;10317;47.254;11.314;2022-11-09T13:56:55;1.38;;;1.30;;
20318;SDS011;10317;47.254;11.314;2022-11-09T13:59:31;1.75;;;1.63;;
20318;SDS011;10317;47.254;11.314;2022-11-09T14:02:01;2.53;;;1.88;;
20318;SDS011;10317;47.254;11.314;2022-11-09T14:04:34;1.50;;;1.50;;
20318;SDS011;10317;47.254;11.314;2022-11-09T14:12:36;7.90;;;1.95;;
20318;SDS011;10317;47.254;11.314;2022-11-09T14:15:28;1.73;;;1.63;;
20318;SDS011;10317;47.254;11.314;2022-11-09T14:20:49;2.05;;;1.95;;
20318;SDS011;10317;47.254;11.314;2022-11-09T14:23:51;2.10;;;1.80;;
20318;SDS011;10317;47.254;11.314;2022-11-09T14:26:19;2.47;;;1.88;;
20318;SDS011;10317;47.254;11.314;2022-11-09T14:28:47;2.67;;;1.80;;
20318;SDS011;10317;47.254;11.314;2022-11-09T14:34:02;1.92;;;1.70;;
20318;SDS011;10317;47.254;11.314;2022-11-09T14:36:33;2.15;;;1.63;;
20318;SDS011;10317;47.254;11.314;2022-11-09T14:39:00;2.33;;;1.88;;
20318;SDS011;10317;47.254;11.314;2022-11-09T14:41:28;2.92;;;1.35;;
20318;SDS011;10317;47.254;11.314;2022-11-09T14:43:55;1.80;;;1.63;;
20318;SDS011;10317;47.254;11.314;2022-11-09T14:46:26;1.63;;;1.52;;
20318;SDS011;10317;47.254;11.314;2022-11-09T14:51:23;1.80;;;1.60;;
20318;SDS011;10317;47.254;11.314;2022-11-09T14:54:12;2.35;;;2.15;;
20318;SDS011;10317;47.254;11.314;2022-11-09T14:56:41;1.77;;;1.50;;
20318;SDS011;10317;47.254;11.314;2022-11-09T14:59:10;6.97;;;1.58;;
20318;SDS011;10317;47.254;11.314;2022-11-09T15:01:54;1.80;;;1.70;;
20318;SDS011;10317;47.254;11.314;2022-11-09T15:04:57;1.77;;;1.63;;
20318;SDS011;10317;47.254;11.314;2022-11-09T15:07:25;1.60;;;1.50;;
20318;SDS011;10317;47.254;11.314;2022-11-09T15:09:54;1.92;;;1.83;;
20318;SDS011;10317;47.254;11.314;2022-11-09T15:12:22;2.13;;;1.83;;
20318;SDS011;10317;47.254;11.314;2022-11-09T15:14:53;2.17;;;1.80;;
20318;SDS011;10317;47.254;11.314;2022-11-09T15:17:32;1.88;;;1.77;;
20318;SDS011;10317;47.254;11.314;2022-11-09T15:20:24;1.73;;;1.63;;
20318;SDS011;10317;47.254;11.314;2022-11-09T15:25:23;3.35;;;2.63;;
20318;SDS011;10317;47.254;11.314;2022-11-09T15:35:59;2.05;;;1.95;;
20318;SDS011;10317;47.254;11.314;2022-11-09T15:38:36;1.88;;;1.73;;
20318;SDS011;10317;47.254;11.314;2022-11-09T15:41:13;2.20;;;2.00;;
20318;SDS011;10317;47.254;11.314;2022-11-09T15:43:41;2.55;;;1.80;;
20318;SDS011;10317;47.254;11.314;2022-11-09T15:46:10;3.28;;;2.28;;
20318;SDS011;10317;47.254;11.314;2022-11-09T15:48:38;2.58;;;2.38;;
20318;SDS011;10317;47.254;11.314;2022-11-09T15:51:04;3.78;;;2.17;;
20318;SDS011;10317;47.254;11.314;2022-11-09T15:53:30;3.67;;;2.50;;
20318;SDS011;10317;47.254;11.314;2022-11-09T15:55:57;4.07;;;2.35;;
20318;SDS011;10317;47.254;11.314;2022-11-09T15:58:23;10.50;;;6.53;;
20318;SDS011;10317;47.254;11.314;2022-11-09T16:00:48;3.70;;;3.40;;
20318;SDS011;10317;47.254;11.314;2022-11-09T16:03:14;3.88;;;3.58;;
20318;SDS011;10317;47.254;11.314;2022-11-09T16:05:41;3.33;;;2.95;;
20318;SDS011;10317;47.254;11.314;2022-11-09T16:08:08;3.47;;;2.50;;
20318;SDS011;10317;47.254;11.314;2022-11-09T16:10:34;3.42;;;2.38;;
20318;SDS011;10317;47.254;11.314;2022-11-09T16:13:04;4.05;;;2.47;;
20318;SDS011;10317;47.254;11.314;2022-11-09T16:15:31;3.20;;;2.90;;
20318;SDS011;10317;47.254;11.314;2022-11-09T16:17:57;3.78;;;2.28;;
20318;SDS011;10317;47.254;11.314;2022-11-09T16:20:23;2.20;;;2.10;;
20318;SDS011;10317;47.254;11.314;2022-11-09T16:22:49;3.30;;;3.03;;
20318;SDS011;10317;47.254;11.314;2022-11-09T16:25:14;3.80;;;2.58;;
20318;SDS011;10317;47.254;11.314;2022-11-09T16:27:41;3.40;;;2.42;;
20318;SDS011;10317;47.254;11.314;2022-11-09T16:30:07;2.85;;;2.50;;
20318;SDS011;10317;47.254;11.314;2022-11-09T16:32:34;2.55;;;2.35;;
20318;SDS011;10317;47.254;11.314;2022-11-09T16:35:00;4.90;;;2.72;;
20318;SDS011;10317;47.254;11.314;2022-11-09T16:37:26;2.33;;;2.13;;
20318;SDS011;10317;47.254;11.314;2022-11-09T16:39:56;3.17;;;2.28;;
20318;SDS011;10317;47.254;11.314;2022-11-09T16:42:23;2.53;;;2.35;;
20318;SDS011;10317;47.254;11.314;2022-11-09T16:44:50;4.15;;;2.40;;
20318;SDS011;10317;47.254;11.314;2022-11-09T16:47:18;4.28;;;2.83;;
20318;SDS011;10317;47.254;11.314;2022-11-09T16:49:45;8.57;;;3.38;;
20318;SDS011;10317;47.254;11.314;2022-11-09T16:52:10;2.95;;;2.75;;
20318;SDS011;10317;47.254;11.314;2022-11-09T16:54:36;3.00;;;2.78;;